Belleview, FL (34420)

1:34 PM EST on February 12, 2016 (GMT -0500)
34420 | | Change Station
CLOSE
Current Station
Personal Weather Station
Location: Candler, FL
Elevation: 75 ft
Nearby Weather Stations

Elev 75 ft 29.06 °N, 81.98 °W | Updated 3 seconds ago

Partly Cloudy
Partly Cloudy
73.4 °F
Feels Like 77 °F
N
4.0
Wind Variable Wind from West
Gusts 12.0 mph

Today
High -- | Low -- °F
--% Chance of Precip.
Yesterday
High -- | Low -- °F
Precip. -- in
Pressure 30.23 in
Visibility 10.0 miles
Clouds Scattered Clouds 4000 ft
Heat Index 77 °F
Dew Point 55 °F
Humidity 53%
Rainfall 0.00 in
Snow Depth Not available.
7:09 AM 6:15 PM
Waxing Crescent, 22% visible
METAR KOCF 121750Z 24014G20KT 10SM SCT040 23/11 A3023
Pressure 30.23 in
Visibility 10.0 miles
Clouds Scattered Clouds 4000 ft
Heat Index 77 °F
Dew Point 55 °F
Humidity 53%
Rainfall 0.00 in
Snow Depth Not available.
7:09 AM 6:15 PM
Waxing Crescent, 22% visible
METAR KOCF 121750Z 24014G20KT 10SM SCT040 23/11 A3023

10-Day Weather Forecast

Almanac

Astronomy

Feb. 12, 2016 Rise Set
Actual Time
Civil Twilight
Nautical Twilight
Astronomical Twilight
Moon
Length of Visible Light
Length of Day
Tomorrow will be .
, % of the Moon is Illuminated

Today's Extremes

State Highs State Lows

Community

WunderPhotos

Upload Photos

1,892,366 photos uploaded!

WunderBlog® & News

Nearby

Air Quality

  Air Quality AQ Index Pollutant
Not available.

Snow Depth

Station Depth Elevation

Earthquake Activity

City Distance Mag. Time & Date
Minimum magnitude displayed is 2.5.

Coastal Water Temperatures

Place Temperature

Stations

Nearby Weather Stations

Station Location Temp. Windchill Dew Point Humidity Wind Precip. Elev Updated Type
                   

Watches & Warnings

There are currently no watches in effect.